Champlain, Virginia
Current Conditions -  °F | °C
As of 5:15 PM on Saturday 25 Oct 2014 (Local Time) from KXSA Reporting Station
Clear Clear  
Wind Chill: 70°   Ceiling: Unl
Heat Index: 70°   Visibility: 10mi
Dew Point: 31°   Wind: 7mph
Humidity: 24%   Direction: 200°SSW
Pressure: 29.83"   Gusts: NA
Location:  38.01°N, 76.99°W
Report Text: KXSA 252115Z AUTO 20006KT 10SM CLR 21/00 A2983 RMK AO2 T02131004
Loading
Personal Weather Stations






























Interactive Weather Map
Tropical Storm Tracking
New forecast layout! Learn more

10-Day Weather Forecast

Advertisements
Track Severe Weather on mobile